Whickham, United Kingdom
Current Conditions -  °F | °C
As of 7:50 AM on Friday 19 Dec 2014 (Local Time) from EGNT Reporting Station
Light Rain Light Rain  
Wind Chill: 28°   Ceiling: 1000
Heat Index: 39°   Visibility: 6mi
Dew Point: 36°   Wind: 28mph
Humidity: 87%   Direction: 280°W
Pressure: 29.59"   Gusts: 41mph
Location:  54.95°N, 1.68°W
Report Text: EGNT 190750Z 28024G36KT 9999 -RA BKN010 04/02 Q1002 RERA
Loading
Personal Weather Stations






























Interactive Weather Map New forecast layout! Learn more

10-Day Weather Forecast

Advertisements
Track Severe Weather on mobile